Le Roy, IL (61752)

9:04 PM CDT on July 29, 2016 (GMT -0500)
LeRoy Fertilizer | | Change Station

Elev 784 ft 40.35 °N, 88.77 °W | Updated 11 seconds ago

Partly Cloudy
Partly Cloudy
70.8 °F
Feels Like 70.8 °F
N
0.0
Wind Variable Wind from West
Gusts 0.0 mph

Today
High -- | Low -- °F
--% Chance of Precip.
Yesterday
High -- | Low -- °F
Precip. -- in
Pressure 29.98 in
Visibility 10.0 miles
Clouds Few 2200 ft
Dew Point 69 °F
Humidity 93%
Rainfall in
Snow Depth Not available.
5:50 AM 8:12 PM
Waning Crescent, 17% visible
METAR KBMI 300156Z 28004KT 10SM FEW022 23/20 A2994 RMK AO2 SLP150 T02280200
Pressure 29.98 in
Visibility 10.0 miles
Clouds Few 2200 ft
Dew Point 69 °F
Humidity 93%
Rainfall in
Snow Depth Not available.
5:50 AM 8:12 PM
Waning Crescent, 17% visible
METAR KBMI 300156Z 28004KT 10SM FEW022 23/20 A2994 RMK AO2 SLP150 T02280200

10-Day Weather Forecast

Almanac

Astronomy

Jul. 29, 2016 Rise Set
Actual Time
Civil Twilight
Nautical Twilight
Astronomical Twilight
Moon
Length of Visible Light
Length of Day
Tomorrow will be .
, % of the Moon is Illuminated

Today's Extremes

State Highs State Lows

Community

WunderPhotos

Upload Photos

1,928,481 photos uploaded!

WunderBlog® & News

Nearby

Air Quality

  Air Quality AQ Index Pollutant
Not available.

Snow Depth

Station Depth Elevation

Earthquake Activity

City Distance Mag. Time & Date
Minimum magnitude displayed is 2.5.

Coastal Water Temperatures

Place Temperature

Stations

Nearby Weather Stations

Station Location Temp. Windchill Dew Point Humidity Wind Precip. Elev Updated Type
                   

Watches & Warnings

There are currently no watches in effect.